createdAt,value
2022-07-30T00:02:47.413Z,41.40
2022-07-30T00:05:29.701Z,42.50
2022-07-30T00:08:18.703Z,34.50
2022-07-30T00:11:00.723Z,33.92
2022-07-30T00:13:49.711Z,33.65
2022-07-30T00:16:31.779Z,35.47
2022-07-30T00:19:20.412Z,34.38
2022-07-30T00:22:04.153Z,38.70
2022-07-30T00:24:52.414Z,38.95
2022-07-30T00:27:47.254Z,32.95
2022-07-30T00:30:35.491Z,34.88
2022-07-30T00:33:17.684Z,37.30
2022-07-30T00:36:06.651Z,40.80
2022-07-30T00:38:48.707Z,39.33
2022-07-30T00:41:37.378Z,36.83
2022-07-30T00:44:19.707Z,36.78
2022-07-30T00:47:08.404Z,34.45
2022-07-30T00:49:50.601Z,38.42
2022-07-30T00:52:42.439Z,40.63
2022-07-30T00:55:24.926Z,43.42
2022-07-30T00:58:13.466Z,37.78
2022-07-30T01:00:56.787Z,36.05
2022-07-30T01:03:46.689Z,44.25
2022-07-30T01:06:28.922Z,38.95
2022-07-30T01:09:17.414Z,34.65
2022-07-30T01:12:06.402Z,45.28
2022-07-30T01:14:50.446Z,34.95
2022-07-30T01:17:40.641Z,33.70
2022-07-30T01:20:29.893Z,34.47
2022-07-30T01:23:43.255Z,32.22
2022-07-30T01:26:39.232Z,35.40
2022-07-30T01:29:28.383Z,36.90
2022-07-30T01:32:13.547Z,33.20
2022-07-30T01:35:05.382Z,34.70
2022-07-30T01:37:49.915Z,37.53
2022-07-30T01:40:40.397Z,36.92
2022-07-30T01:43:23.787Z,37.45
2022-07-30T01:46:13.608Z,37.08
2022-07-30T01:48:58.763Z,43.25
2022-07-30T01:51:42.423Z,34.47
2022-07-30T01:54:27.870Z,36.58
2022-07-30T01:57:17.657Z,37.75
2022-07-30T02:00:13.633Z,36.95
2022-07-30T02:02:58.415Z,35.35
2022-07-30T02:05:50.676Z,37.55
2022-07-30T02:08:58.428Z,39.63
2022-07-30T02:12:09.366Z,34.95
2022-07-30T02:15:07.433Z,37.92
2022-07-30T02:18:00.068Z,40.15
2022-07-30T02:20:50.433Z,40.33
2022-07-30T02:23:48.925Z,38.85
2022-07-30T02:26:38.630Z,35.88
2022-07-30T02:29:24.013Z,35.70
2022-07-30T02:32:17.412Z,37.45
2022-07-30T02:35:06.697Z,36.50
2022-07-30T02:38:00.379Z,34.20
2022-07-30T02:40:43.579Z,29.83
2022-07-30T02:43:36.253Z,33.28
2022-07-30T02:46:27.663Z,35.05
2022-07-30T02:49:41.197Z,27.42
2022-07-30T02:52:31.278Z,29.65
2022-07-30T02:55:21.640Z,35.67
2022-07-30T02:58:12.471Z,28.45
2022-07-30T03:00:57.172Z,29.20
2022-07-30T03:03:46.643Z,28.98
2022-07-30T03:06:28.934Z,31.77
2022-07-30T03:09:19.765Z,31.52
2022-07-30T03:12:04.332Z,28.20
2022-07-30T03:14:54.420Z,28.95
2022-07-30T03:17:41.623Z,24.17
2022-07-30T03:20:35.412Z,26.55
2022-07-30T03:23:28.711Z,26.95
2022-07-30T03:26:13.399Z,27.50
2022-07-30T03:29:02.903Z,24.05
2022-07-30T03:31:48.458Z,28.13
2022-07-30T03:34:39.456Z,23.02
2022-07-30T03:37:22.895Z,26.25
2022-07-30T03:40:12.398Z,22.63
2022-07-30T03:42:56.274Z,24.67
2022-07-30T03:45:50.634Z,21.10
2022-07-30T03:48:36.214Z,22.38
2022-07-30T03:51:25.369Z,19.48
2022-07-30T03:54:14.883Z,20.70
2022-07-30T03:57:20.823Z,19.45
2022-07-30T04:00:03.248Z,20.25
2022-07-30T04:02:55.381Z,24.08
2022-07-30T04:05:57.612Z,20.17
2022-07-30T04:08:46.645Z,18.80
2022-07-30T04:11:41.272Z,21.23
2022-07-30T04:14:32.380Z,20.63
2022-07-30T04:17:30.740Z,18.98
2022-07-30T04:20:24.643Z,16.27
2022-07-30T04:23:06.802Z,18.70
2022-07-30T04:25:59.404Z,22.80
2022-07-30T04:28:54.288Z,19.05
2022-07-30T04:31:44.929Z,16.48
2022-07-30T04:34:42.630Z,21.70
2022-07-30T04:37:29.970Z,18.90
2022-07-30T04:40:20.398Z,17.63
2022-07-30T04:43:17.926Z,18.73
2022-07-30T04:45:59.440Z,19.17
2022-07-30T04:48:42.845Z,19.77
2022-07-30T04:51:42.406Z,22.60
2022-07-30T04:54:26.983Z,19.75
2022-07-30T04:57:15.556Z,24.40
2022-07-30T04:59:57.772Z,20.42
2022-07-30T05:02:49.652Z,18.67
2022-07-30T05:05:45.625Z,20.83
2022-07-30T05:08:28.013Z,19.95
2022-07-30T05:11:20.659Z,18.65
2022-07-30T05:14:09.364Z,21.73
2022-07-30T05:16:51.970Z,21.38
2022-07-30T05:19:40.453Z,22.23
2022-07-30T05:22:22.939Z,19.98
2022-07-30T05:25:15.784Z,20.75
2022-07-30T05:28:14.485Z,18.88
2022-07-30T05:31:08.104Z,20.30
2022-07-30T05:33:58.274Z,22.25
2022-07-30T05:36:58.781Z,18.60
2022-07-30T05:39:58.789Z,19.67
2022-07-30T05:43:00.388Z,17.83
2022-07-30T05:45:49.811Z,17.02
2022-07-30T05:48:33.264Z,16.30
2022-07-30T05:51:22.645Z,16.42
2022-07-30T05:54:11.443Z,16.80
2022-07-30T05:57:26.648Z,16.15
2022-07-30T06:00:15.055Z,16.58
2022-07-30T06:03:08.659Z,15.23
2022-07-30T06:06:16.740Z,19.17
2022-07-30T06:09:07.395Z,18.83
2022-07-30T06:11:49.912Z,19.58
2022-07-30T06:14:40.379Z,18.60
2022-07-30T06:17:29.818Z,19.10
2022-07-30T06:20:29.405Z,24.02
2022-07-30T06:23:39.445Z,26.83
2022-07-30T06:26:37.381Z,32.15
2022-07-30T06:29:33.493Z,31.05
2022-07-30T06:32:26.372Z,32.42
2022-07-30T06:35:11.385Z,42.17
2022-07-30T06:38:06.780Z,45.67
2022-07-30T06:41:02.831Z,49.45
2022-07-30T06:44:12.437Z,40.00
2022-07-30T06:47:13.095Z,44.45
2022-07-30T06:50:03.637Z,42.90
2022-07-30T06:52:45.694Z,38.80
2022-07-30T06:55:35.663Z,42.70
2022-07-30T06:58:17.653Z,41.17
2022-07-30T07:01:34.696Z,40.63
2022-07-30T07:04:16.767Z,40.95
2022-07-30T07:07:12.727Z,41.45
2022-07-30T07:09:56.091Z,42.78
2022-07-30T07:13:03.418Z,40.05
2022-07-30T07:15:46.135Z,44.83
2022-07-30T07:18:37.373Z,38.08
2022-07-30T07:21:19.938Z,38.72
2022-07-30T07:24:10.432Z,43.67
2022-07-30T07:27:05.035Z,46.30
2022-07-30T07:30:08.430Z,42.40
2022-07-30T07:32:51.530Z,49.90
2022-07-30T07:35:49.727Z,47.00
2022-07-30T07:38:35.814Z,48.65
2022-07-30T07:41:24.406Z,50.95
2022-07-30T07:44:06.797Z,48.20
2022-07-30T07:46:55.670Z,56.10
2022-07-30T07:49:42.712Z,50.83
2022-07-30T07:52:31.398Z,45.28
2022-07-30T07:55:14.683Z,47.83
2022-07-30T07:58:05.697Z,49.25
2022-07-30T08:00:49.011Z,44.17
2022-07-30T08:03:45.394Z,47.78
2022-07-30T08:06:48.148Z,43.83
2022-07-30T08:09:54.380Z,44.53
2022-07-30T08:12:36.939Z,47.90
2022-07-30T08:16:00.624Z,49.40
2022-07-30T08:19:09.651Z,46.10
2022-07-30T08:22:00.308Z,47.97
2022-07-30T08:24:49.375Z,51.15
2022-07-30T08:27:38.667Z,48.85
2022-07-30T08:30:28.732Z,50.35
2022-07-30T08:33:10.900Z,49.65
2022-07-30T08:36:09.155Z,48.30
2022-07-30T08:38:59.635Z,44.33
2022-07-30T08:41:49.942Z,59.63
2022-07-30T08:44:32.616Z,45.83
2022-07-30T08:47:25.972Z,46.00
2022-07-30T08:50:17.647Z,45.78
2022-07-30T08:53:26.410Z,48.53
2022-07-30T08:56:09.980Z,49.92
2022-07-30T08:59:00.406Z,47.97
2022-07-30T09:01:43.090Z,46.03
2022-07-30T09:04:31.399Z,40.42
2022-07-30T09:07:21.653Z,42.80
2022-07-30T09:10:11.010Z,36.47
2022-07-30T09:12:54.625Z,42.90
2022-07-30T09:15:47.080Z,42.17
2022-07-30T09:18:51.693Z,52.10
2022-07-30T09:21:39.867Z,46.30
2022-07-30T09:24:51.396Z,45.35
2022-07-30T09:28:00.077Z,52.55
2022-07-30T09:31:17.499Z,49.60
2022-07-30T09:34:54.425Z,44.60
2022-07-30T09:38:07.660Z,48.10
2022-07-30T09:41:37.781Z,46.88
2022-07-30T09:44:37.648Z,47.17
2022-07-30T09:47:39.850Z,39.80
2022-07-30T09:50:30.686Z,46.13
2022-07-30T09:53:24.378Z,44.05
2022-07-30T09:56:26.681Z,38.85
2022-07-30T09:59:20.640Z,39.78
2022-07-30T10:02:05.192Z,38.88
2022-07-30T10:05:29.625Z,34.75
2022-07-30T10:08:16.756Z,40.90
2022-07-30T10:11:09.575Z,29.17
2022-07-30T10:14:00.493Z,26.77
2022-07-30T10:16:49.624Z,30.35
2022-07-30T10:19:39.791Z,27.17
2022-07-30T10:22:33.383Z,26.77
2022-07-30T10:25:48.998Z,37.70
2022-07-30T10:28:52.675Z,35.83
2022-07-30T10:31:48.333Z,33.42
2022-07-30T10:34:34.426Z,33.97
2022-07-30T10:37:27.390Z,28.85
2022-07-30T10:40:23.025Z,23.52
2022-07-30T10:43:50.640Z,24.45
2022-07-30T10:46:57.934Z,25.52
2022-07-30T10:49:48.676Z,24.90
2022-07-30T10:53:04.615Z,30.50
2022-07-30T10:55:53.816Z,53.67
2022-07-30T10:58:35.274Z,45.53
2022-07-30T11:01:24.401Z,40.65
2022-07-30T11:04:32.521Z,42.05
2022-07-30T11:07:30.496Z,40.67
2022-07-30T11:10:12.554Z,40.08
2022-07-30T11:13:03.654Z,38.88
2022-07-30T11:16:07.605Z,40.22
2022-07-30T11:19:55.907Z,42.95
2022-07-30T11:22:45.674Z,44.45
2022-07-30T11:25:51.705Z,46.05
2022-07-30T11:28:50.131Z,39.53
2022-07-30T11:32:07.496Z,41.38
2022-07-30T11:35:02.391Z,40.45
2022-07-30T11:38:19.647Z,38.05
2022-07-30T11:41:04.915Z,44.28
2022-07-30T11:43:53.378Z,40.40
2022-07-30T11:46:35.830Z,37.10
2022-07-30T11:49:26.424Z,36.95
2022-07-30T11:52:08.858Z,39.72
2022-07-30T11:55:07.393Z,36.53
2022-07-30T11:57:57.614Z,34.72
2022-07-30T12:00:49.014Z,33.78
2022-07-30T12:03:40.325Z,35.55
2022-07-30T12:06:24.448Z,33.30
2022-07-30T12:09:14.613Z,35.15
2022-07-30T12:11:57.727Z,33.92
2022-07-30T12:14:52.634Z,33.05
2022-07-30T12:18:11.019Z,34.20
2022-07-30T12:21:17.965Z,34.03
2022-07-30T12:24:11.363Z,37.60
2022-07-30T12:26:55.022Z,33.47
2022-07-30T12:29:46.653Z,39.50
2022-07-30T12:32:35.211Z,38.03
2022-07-30T12:35:29.364Z,38.83
2022-07-30T12:38:12.198Z,37.15
2022-07-30T12:41:11.393Z,48.70
2022-07-30T12:43:57.613Z,42.20
2022-07-30T12:46:53.322Z,38.47
2022-07-30T12:49:37.614Z,39.35
2022-07-30T12:52:46.378Z,39.47
2022-07-30T12:55:34.521Z,42.15
2022-07-30T12:58:23.652Z,35.13
2022-07-30T13:01:12.730Z,27.67
2022-07-30T13:03:55.420Z,27.52
2022-07-30T13:06:45.006Z,29.98
2022-07-30T13:09:29.608Z,22.63
2022-07-30T13:12:16.126Z,23.25
2022-07-30T13:15:04.369Z,29.52
2022-07-30T13:17:53.422Z,22.35
2022-07-30T13:20:35.661Z,21.77
2022-07-30T13:23:24.403Z,21.50
2022-07-30T13:26:06.795Z,23.02
2022-07-30T13:28:57.623Z,25.17
2022-07-30T13:31:43.801Z,27.85
2022-07-30T13:34:38.367Z,28.00
2022-07-30T13:37:20.843Z,25.23
2022-07-30T13:40:13.397Z,24.52
2022-07-30T13:43:03.731Z,25.92
2022-07-30T13:45:46.384Z,24.77
2022-07-30T13:48:34.979Z,24.55
2022-07-30T13:51:16.633Z,22.85
2022-07-30T13:54:06.021Z,26.05
2022-07-30T13:56:48.364Z,27.10
2022-07-30T13:59:36.797Z,21.92
2022-07-30T14:02:19.351Z,26.73
2022-07-30T14:05:09.090Z,30.75
2022-07-30T14:07:50.498Z,26.98
2022-07-30T14:10:40.613Z,22.70
2022-07-30T14:13:23.335Z,23.13
2022-07-30T14:16:35.395Z,21.70
2022-07-30T14:19:23.166Z,24.98
2022-07-30T14:22:13.636Z,24.20
2022-07-30T14:24:56.104Z,26.42
2022-07-30T14:27:45.604Z,25.02
2022-07-30T14:30:31.538Z,23.98
2022-07-30T14:33:20.613Z,24.50
2022-07-30T14:36:15.470Z,25.70
2022-07-30T14:39:12.604Z,25.40
2022-07-30T14:42:00.784Z,20.55
2022-07-30T14:44:43.620Z,30.48
2022-07-30T14:47:32.031Z,24.02
2022-07-30T14:50:19.694Z,21.48
2022-07-30T14:53:08.611Z,27.38
2022-07-30T14:55:51.017Z,23.17
2022-07-30T14:58:39.359Z,21.52
2022-07-30T15:01:28.655Z,23.25
2022-07-30T15:04:17.872Z,21.92
2022-07-30T15:07:00.377Z,23.38
2022-07-30T15:09:48.692Z,16.08
2022-07-30T15:12:31.458Z,18.58
2022-07-30T15:15:21.038Z,16.13
2022-07-30T15:18:05.635Z,18.63
2022-07-30T15:20:47.953Z,16.90
2022-07-30T15:23:36.614Z,22.80
2022-07-30T15:26:18.642Z,14.55
2022-07-30T15:29:11.624Z,14.25
2022-07-30T15:31:55.476Z,19.08
2022-07-30T15:34:44.361Z,17.60
2022-07-30T15:37:40.344Z,13.65
2022-07-30T15:40:31.461Z,19.63
2022-07-30T15:43:14.034Z,17.38
2022-07-30T15:46:02.384Z,17.85
2022-07-30T15:48:51.644Z,28.08
2022-07-30T15:51:48.524Z,23.75
2022-07-30T15:54:31.413Z,26.30
2022-07-30T15:57:13.685Z,23.20
2022-07-30T16:00:02.388Z,18.73
2022-07-30T16:02:47.939Z,19.50
2022-07-30T16:05:52.058Z,21.27
2022-07-30T16:08:40.696Z,21.77
2022-07-30T16:11:22.374Z,20.73
2022-07-30T16:14:04.452Z,22.00
2022-07-30T16:16:53.611Z,23.05
2022-07-30T16:19:35.755Z,20.13
2022-07-30T16:22:24.632Z,25.48
2022-07-30T16:25:07.370Z,30.15
2022-07-30T16:27:56.376Z,24.02
2022-07-30T16:30:50.915Z,24.33
2022-07-30T16:33:33.847Z,23.30
2022-07-30T16:36:22.367Z,20.90
2022-07-30T16:39:11.606Z,20.70
2022-07-30T16:41:53.910Z,19.55
2022-07-30T16:44:43.590Z,22.30
2022-07-30T16:47:25.507Z,18.08
2022-07-30T16:50:14.364Z,21.55
2022-07-30T16:53:08.543Z,20.00
2022-07-30T16:55:54.604Z,16.70
2022-07-30T16:58:43.592Z,17.95
2022-07-30T17:01:25.884Z,19.10
2022-07-30T17:04:15.650Z,21.13
2022-07-30T17:07:05.365Z,21.95
2022-07-30T17:09:52.466Z,21.20
2022-07-30T17:12:41.405Z,21.08
2022-07-30T17:15:39.609Z,24.65
2022-07-30T17:18:22.855Z,17.65
2022-07-30T17:21:11.392Z,21.33
2022-07-30T17:24:00.610Z,23.42
2022-07-30T17:26:50.643Z,17.65
2022-07-30T17:29:32.617Z,19.77
2022-07-30T17:32:15.892Z,15.60
2022-07-30T17:35:04.393Z,24.13
2022-07-30T17:37:47.020Z,24.15
2022-07-30T17:40:35.598Z,20.05
2022-07-30T17:43:24.425Z,19.65
2022-07-30T17:46:07.349Z,19.73
2022-07-30T17:48:56.461Z,24.23
2022-07-30T17:51:38.772Z,28.83
2022-07-30T17:54:27.381Z,25.92
2022-07-30T17:57:16.587Z,25.30
2022-07-30T18:00:22.357Z,26.23
2022-07-30T18:03:12.045Z,31.95
2022-07-30T18:05:53.617Z,22.35
2022-07-30T18:08:42.714Z,21.35
2022-07-30T18:11:25.373Z,19.30
2022-07-30T18:14:13.566Z,23.85
2022-07-30T18:16:55.352Z,28.75
2022-07-30T18:19:37.952Z,19.23
2022-07-30T18:22:31.784Z,21.23
2022-07-30T18:25:18.002Z,20.90
2022-07-30T18:28:08.358Z,19.17
2022-07-30T18:30:50.839Z,21.45
2022-07-30T18:33:39.619Z,19.77
2022-07-30T18:36:28.612Z,29.50
2022-07-30T18:39:11.811Z,24.33
2022-07-30T18:42:00.846Z,16.20
2022-07-30T18:44:49.616Z,20.08
2022-07-30T18:47:31.936Z,20.35
2022-07-30T18:50:14.653Z,21.17
2022-07-30T18:52:57.313Z,20.15
2022-07-30T18:55:46.595Z,21.67
2022-07-30T18:58:29.039Z,14.68
2022-07-30T19:01:17.577Z,16.55
2022-07-30T19:04:00.102Z,21.60
2022-07-30T19:06:48.600Z,17.00
2022-07-30T19:09:37.611Z,16.45
2022-07-30T19:12:26.241Z,18.77
2022-07-30T19:15:13.966Z,17.60
2022-07-30T19:18:01.780Z,15.48
2022-07-30T19:20:44.348Z,18.38
2022-07-30T19:23:33.383Z,17.45
2022-07-30T19:26:17.582Z,18.08
2022-07-30T19:29:06.424Z,13.48
2022-07-30T19:31:55.609Z,15.55
2022-07-30T19:34:45.033Z,20.92
2022-07-30T19:37:26.370Z,17.50
2022-07-30T19:40:15.658Z,14.02
2022-07-30T19:42:57.619Z,14.52
2022-07-30T19:45:47.434Z,12.25
2022-07-30T19:48:37.588Z,15.40
2022-07-30T19:52:10.379Z,12.57
2022-07-30T19:54:28.906Z,14.35
2022-07-30T19:57:16.595Z,16.20
2022-07-30T20:00:04.100Z,16.95
2022-07-30T20:02:56.415Z,15.95
2022-07-30T20:05:57.623Z,15.82
2022-07-30T20:08:48.382Z,16.20
2022-07-30T20:11:37.610Z,17.70
2022-07-30T20:14:20.662Z,15.65
2022-07-30T20:17:09.608Z,15.13
2022-07-30T20:19:53.690Z,19.23
2022-07-30T20:22:42.358Z,14.50
2022-07-30T20:25:24.686Z,23.00
2022-07-30T20:28:13.372Z,20.13
2022-07-30T20:31:04.373Z,19.38
2022-07-30T20:33:50.252Z,15.30
2022-07-30T20:36:40.349Z,13.07
2022-07-30T20:39:35.430Z,18.33
2022-07-30T20:42:24.717Z,13.73
2022-07-30T20:45:13.354Z,17.70
2022-07-30T20:48:05.888Z,14.52
2022-07-30T20:53:56.354Z,14.90
2022-07-30T20:56:43.237Z,14.13
2022-07-30T20:59:32.581Z,18.27
2022-07-30T21:02:28.276Z,15.80
2022-07-30T21:05:11.060Z,12.13
2022-07-30T21:08:04.603Z,13.82
2022-07-30T21:10:47.628Z,16.02
2022-07-30T21:13:36.376Z,14.23
2022-07-30T21:16:25.365Z,15.38
2022-07-30T21:19:07.787Z,15.23
2022-07-30T21:21:57.607Z,14.80
2022-07-30T21:24:46.378Z,15.27
2022-07-30T21:27:42.350Z,15.77
2022-07-30T21:30:31.585Z,16.75
2022-07-30T21:33:14.627Z,17.80
2022-07-30T21:36:03.358Z,15.73
2022-07-30T21:38:46.946Z,17.25
2022-07-30T21:41:40.048Z,15.50
2022-07-30T21:44:22.531Z,16.40
2022-07-30T21:47:12.607Z,17.98
2022-07-30T21:49:54.854Z,15.48
2022-07-30T21:52:43.610Z,17.15
2022-07-30T21:55:33.330Z,15.10
2022-07-30T21:58:25.734Z,14.63
2022-07-30T22:01:27.379Z,16.90
2022-07-30T22:04:09.543Z,14.98
2022-07-30T22:07:00.526Z,17.98
2022-07-30T22:09:43.547Z,14.50
2022-07-30T22:12:32.604Z,16.75
2022-07-30T22:15:21.354Z,17.58
2022-07-30T22:18:03.752Z,20.65
2022-07-30T22:20:52.368Z,17.02
2022-07-30T22:23:34.650Z,18.60
2022-07-30T22:26:23.594Z,15.43
2022-07-30T22:29:08.801Z,12.85
2022-07-30T22:31:58.620Z,13.52
2022-07-30T22:34:41.929Z,15.73
2022-07-30T22:37:34.864Z,14.73
2022-07-30T22:40:31.394Z,16.40
2022-07-30T22:43:21.662Z,18.75
2022-07-30T22:46:03.460Z,13.15
2022-07-30T22:49:02.922Z,15.85
2022-07-30T22:51:58.771Z,16.23
2022-07-30T22:54:45.833Z,16.00
2022-07-30T22:57:40.224Z,23.98
2022-07-30T23:00:28.252Z,23.13
2022-07-30T23:03:17.227Z,27.33
2022-07-30T23:06:07.401Z,25.05
2022-07-30T23:08:56.878Z,26.88
2022-07-30T23:11:46.599Z,28.30
2022-07-30T23:12:18.627Z,13.07
2022-07-30T23:14:29.585Z,27.63
2022-07-30T23:17:18.356Z,27.70
2022-07-30T23:20:00.716Z,29.77
2022-07-30T23:22:49.377Z,27.90
2022-07-30T23:25:38.560Z,29.25
2022-07-30T23:28:28.574Z,30.48
2022-07-30T23:31:11.812Z,30.50
2022-07-30T23:34:00.359Z,27.83
2022-07-30T23:36:43.690Z,27.63
2022-07-30T23:39:32.344Z,24.27
2022-07-30T23:42:20.857Z,23.13
2022-07-30T23:45:02.247Z,20.58
2022-07-30T23:48:00.714Z,20.65
2022-07-30T23:50:44.670Z,23.48
2022-07-30T23:53:33.362Z,21.45
2022-07-30T23:56:21.648Z,19.63
2022-07-30T23:59:10.232Z,21.02
